createdAt,value
2018-03-21T00:02:02.518Z,-0.93
2018-03-21T00:04:30.009Z,-0.96
2018-03-21T00:06:57.516Z,-1.00
2018-03-21T00:09:24.974Z,-1.04
2018-03-21T00:11:52.434Z,-1.04
2018-03-21T00:14:19.915Z,-1.10
2018-03-21T00:16:47.481Z,-1.14
2018-03-21T00:19:14.939Z,-1.21
2018-03-21T00:21:42.418Z,-1.25
2018-03-21T00:24:09.878Z,-1.29
2018-03-21T00:26:37.348Z,-1.33
2018-03-21T00:29:04.898Z,-1.38
2018-03-21T00:31:32.360Z,-1.39
2018-03-21T00:33:59.843Z,-1.34
2018-03-21T00:36:27.345Z,-1.33
2018-03-21T00:38:54.888Z,-1.34
2018-03-21T00:41:22.367Z,-1.34
2018-03-21T00:43:49.906Z,-1.32
2018-03-21T00:46:17.413Z,-1.31
2018-03-21T00:48:44.882Z,-1.30
2018-03-21T00:51:12.352Z,-1.29
2018-03-21T00:53:39.840Z,-1.33
2018-03-21T00:56:07.303Z,-1.41
2018-03-21T00:58:34.785Z,-1.45
2018-03-21T01:01:02.315Z,-1.47
2018-03-21T01:03:29.819Z,-1.47
2018-03-21T01:05:57.327Z,-1.44
2018-03-21T01:08:24.807Z,-1.46
2018-03-21T01:10:52.271Z,-1.48
2018-03-21T01:13:19.730Z,-1.50
2018-03-21T01:15:47.220Z,-1.49
2018-03-21T01:18:14.679Z,-1.51
2018-03-21T01:20:42.143Z,-1.53
2018-03-21T01:23:09.620Z,-1.54
2018-03-21T01:25:37.094Z,-1.56
2018-03-21T01:28:04.646Z,-1.59
2018-03-21T01:30:32.133Z,-1.59
2018-03-21T01:32:59.669Z,-1.60
2018-03-21T01:35:27.128Z,-1.56
2018-03-21T01:37:54.618Z,-1.53
2018-03-21T01:40:22.113Z,-1.53
2018-03-21T01:42:49.582Z,-1.54
2018-03-21T01:45:17.059Z,-1.53
2018-03-21T01:47:44.542Z,-1.54
2018-03-21T01:50:12.000Z,-1.53
2018-03-21T01:52:39.496Z,-1.50
2018-03-21T01:55:06.955Z,-1.49
2018-03-21T01:57:34.426Z,-1.46
2018-03-21T02:00:01.899Z,-1.47
2018-03-21T02:02:29.362Z,-1.48
2018-03-21T02:04:56.921Z,-1.49
2018-03-21T02:07:24.399Z,-1.51
2018-03-21T02:09:51.861Z,-1.54
2018-03-21T02:12:19.314Z,-1.61
2018-03-21T02:14:46.961Z,-1.66
2018-03-21T02:17:14.413Z,-1.72
2018-03-21T02:19:41.910Z,-1.76
2018-03-21T02:22:09.391Z,-1.79
2018-03-21T02:24:36.882Z,-1.83
2018-03-21T02:27:04.462Z,-1.88
2018-03-21T02:29:32.046Z,-1.96
2018-03-21T02:31:59.499Z,-2.00
2018-03-21T02:34:27.029Z,-2.02
2018-03-21T02:36:54.579Z,-2.06
2018-03-21T02:39:22.038Z,-2.13
2018-03-21T02:41:49.533Z,-2.20
2018-03-21T02:44:17.003Z,-2.24
2018-03-21T02:46:44.458Z,-2.26
2018-03-21T02:49:11.978Z,-2.28
2018-03-21T02:51:39.539Z,-2.29
2018-03-21T02:54:07.006Z,-2.31
2018-03-21T02:56:34.490Z,-2.31
2018-03-21T02:59:01.957Z,-2.32
2018-03-21T03:01:29.407Z,-2.32
2018-03-21T03:03:56.887Z,-2.33
2018-03-21T03:06:24.371Z,-2.36
2018-03-21T03:08:51.925Z,-2.39
2018-03-21T03:11:19.498Z,-2.41
2018-03-21T03:13:47.092Z,-2.44
2018-03-21T03:16:14.563Z,-2.43
2018-03-21T03:18:42.057Z,-2.42
2018-03-21T03:21:09.516Z,-2.42
2018-03-21T03:23:36.977Z,-2.43
2018-03-21T03:26:04.536Z,-2.44
2018-03-21T03:28:32.051Z,-2.46
2018-03-21T03:30:59.492Z,-2.46
2018-03-21T03:33:27.066Z,-2.44
2018-03-21T03:35:54.521Z,-2.41
2018-03-21T03:38:21.994Z,-2.40
2018-03-21T03:40:49.483Z,-2.38
2018-03-21T03:43:16.975Z,-2.38
2018-03-21T03:45:44.494Z,-2.38
2018-03-21T03:48:11.966Z,-2.38
2018-03-21T03:50:39.510Z,-2.39
2018-03-21T03:53:07.020Z,-2.41
2018-03-21T03:55:34.578Z,-2.43
2018-03-21T03:58:02.063Z,-2.46
2018-03-21T04:00:29.521Z,-2.48
2018-03-21T04:02:56.997Z,-2.47
2018-03-21T04:05:24.569Z,-2.47
2018-03-21T04:07:52.023Z,-2.49
2018-03-21T04:10:19.509Z,-2.51
2018-03-21T04:12:47.032Z,-2.50
2018-03-21T04:15:14.498Z,-2.51
2018-03-21T04:17:42.558Z,-2.50
2018-03-21T04:20:10.014Z,-2.46
2018-03-21T04:22:37.470Z,-2.46
2018-03-21T04:25:05.139Z,-2.47
2018-03-21T04:27:32.608Z,-2.48
2018-03-21T04:30:00.067Z,-2.49
2018-03-21T04:32:27.610Z,-2.48
2018-03-21T04:34:55.068Z,-2.46
2018-03-21T04:37:22.523Z,-2.44
2018-03-21T04:39:49.999Z,-2.43
2018-03-21T04:42:17.456Z,-2.43
2018-03-21T04:44:44.911Z,-2.42
2018-03-21T04:47:12.378Z,-2.44
2018-03-21T04:49:39.842Z,-2.45
2018-03-21T04:52:07.587Z,-2.49
2018-03-21T04:54:35.043Z,-2.53
2018-03-21T04:57:02.538Z,-2.53
2018-03-21T04:59:29.996Z,-2.54
2018-03-21T05:01:57.498Z,-2.55
2018-03-21T05:04:24.939Z,-2.55
2018-03-21T05:06:52.422Z,-2.57
2018-03-21T05:09:19.878Z,-2.58
2018-03-21T05:11:47.383Z,-2.59
2018-03-21T05:14:14.897Z,-2.59
2018-03-21T05:16:42.351Z,-2.60
2018-03-21T05:19:09.802Z,-2.63
2018-03-21T05:21:37.273Z,-2.63
2018-03-21T05:24:04.830Z,-2.62
2018-03-21T05:26:32.327Z,-2.64
2018-03-21T05:28:59.793Z,-2.65
2018-03-21T05:31:27.250Z,-2.65
2018-03-21T05:33:54.721Z,-2.64
2018-03-21T05:36:22.180Z,-2.64
2018-03-21T05:38:49.657Z,-2.63
2018-03-21T05:41:17.182Z,-2.59
2018-03-21T05:43:44.735Z,-2.55
2018-03-21T05:46:12.219Z,-2.52
2018-03-21T05:48:39.686Z,-2.46
2018-03-21T05:51:07.986Z,-2.38
2018-03-21T05:53:35.450Z,-2.31
2018-03-21T05:56:02.906Z,-2.28
2018-03-21T05:58:30.396Z,-2.25
2018-03-21T06:00:57.859Z,-2.22
2018-03-21T06:03:25.350Z,-2.17
2018-03-21T06:05:52.838Z,-2.16
2018-03-21T06:08:20.290Z,-2.14
2018-03-21T06:10:47.758Z,-2.13
2018-03-21T06:13:15.223Z,-2.07
2018-03-21T06:15:42.715Z,-2.01
2018-03-21T06:18:10.179Z,-1.94
2018-03-21T06:20:37.645Z,-1.89
2018-03-21T06:23:05.135Z,-1.81
2018-03-21T06:25:32.687Z,-1.71
2018-03-21T06:28:00.246Z,-1.65
2018-03-21T06:30:27.817Z,-1.60
2018-03-21T06:32:55.279Z,-1.55
2018-03-21T06:35:22.770Z,-1.52
2018-03-21T06:37:50.239Z,-1.41
2018-03-21T06:40:17.698Z,-1.30
2018-03-21T06:42:45.177Z,-1.27
2018-03-21T06:45:12.631Z,-1.24
2018-03-21T06:47:40.083Z,-1.19
2018-03-21T06:50:07.550Z,-1.09
2018-03-21T06:52:35.126Z,-1.00
2018-03-21T06:55:02.607Z,-0.89
2018-03-21T06:57:30.085Z,-0.81
2018-03-21T06:59:57.566Z,-0.74
2018-03-21T07:02:25.036Z,-0.70
2018-03-21T07:04:52.510Z,-0.59
2018-03-21T07:07:20.002Z,-0.48
2018-03-21T07:09:47.505Z,-0.41
2018-03-21T07:12:14.992Z,-0.27
2018-03-21T07:14:54.222Z,-0.23
2018-03-21T07:17:22.111Z,-0.12
2018-03-21T07:19:49.570Z,-0.03
2018-03-21T07:22:17.110Z,0.06
2018-03-21T07:24:44.607Z,0.15
2018-03-21T07:27:12.080Z,0.22
2018-03-21T07:29:39.556Z,0.37
2018-03-21T07:32:07.017Z,0.45
2018-03-21T07:34:34.537Z,0.53
2018-03-21T07:37:02.004Z,0.67
2018-03-21T07:39:29.518Z,0.78
2018-03-21T07:41:57.064Z,0.86
2018-03-21T07:44:24.518Z,0.99
2018-03-21T07:46:51.982Z,1.03
2018-03-21T07:49:19.585Z,1.08
2018-03-21T07:51:47.068Z,1.22
2018-03-21T07:54:14.531Z,1.34
2018-03-21T07:56:42.025Z,1.43
2018-03-21T07:59:09.520Z,1.53
2018-03-21T08:01:36.970Z,1.62
2018-03-21T08:04:04.534Z,1.70
2018-03-21T08:06:31.990Z,1.73
2018-03-21T08:08:59.449Z,1.87
2018-03-21T08:11:26.917Z,1.84
2018-03-21T08:13:54.427Z,2.07
2018-03-21T08:16:21.893Z,2.16
2018-03-21T08:18:49.375Z,2.15
2018-03-21T08:21:16.826Z,2.15
2018-03-21T08:23:44.350Z,2.26
2018-03-21T08:26:11.812Z,2.36
2018-03-21T08:28:39.295Z,2.47
2018-03-21T08:31:06.799Z,2.64
2018-03-21T08:33:34.251Z,2.76
2018-03-21T08:36:01.747Z,2.77
2018-03-21T08:38:29.210Z,2.94
2018-03-21T08:40:56.805Z,2.95
2018-03-21T08:43:24.318Z,3.02
2018-03-21T08:45:51.823Z,3.07
2018-03-21T08:48:19.276Z,3.15
2018-03-21T08:50:46.784Z,3.28
2018-03-21T08:53:14.234Z,3.33
2018-03-21T08:55:41.721Z,3.35
2018-03-21T08:58:09.263Z,3.53
2018-03-21T09:00:36.715Z,3.44
2018-03-21T09:03:04.191Z,3.50
2018-03-21T09:05:31.642Z,3.63
2018-03-21T09:07:59.103Z,3.76
2018-03-21T09:10:26.650Z,3.76
2018-03-21T09:12:54.110Z,3.87
2018-03-21T09:15:21.615Z,3.76
2018-03-21T09:17:49.069Z,3.89
2018-03-21T09:20:16.528Z,3.98
2018-03-21T09:22:43.987Z,3.92
2018-03-21T09:25:11.545Z,3.94
2018-03-21T09:27:39.004Z,4.03
2018-03-21T09:30:06.491Z,4.02
2018-03-21T09:32:34.034Z,4.13
2018-03-21T09:35:01.532Z,4.25
2018-03-21T09:37:29.049Z,4.38
2018-03-21T09:39:56.518Z,4.41
2018-03-21T09:42:24.004Z,4.32
2018-03-21T09:44:51.462Z,4.56
2018-03-21T09:47:18.931Z,4.81
2018-03-21T09:49:46.453Z,4.97
2018-03-21T09:52:13.863Z,5.17
2018-03-21T09:54:43.314Z,5.17
2018-03-21T09:57:10.777Z,5.37
2018-03-21T09:59:38.251Z,5.43
2018-03-21T10:02:05.715Z,5.32
2018-03-21T10:04:33.174Z,5.38
2018-03-21T10:07:00.626Z,5.42
2018-03-21T10:09:28.190Z,5.40
2018-03-21T10:11:55.678Z,5.08
2018-03-21T10:14:23.180Z,4.96
2018-03-21T10:16:50.658Z,4.67
2018-03-21T10:19:18.130Z,4.54
2018-03-21T10:21:45.591Z,4.59
2018-03-21T10:24:13.142Z,4.80
2018-03-21T10:26:40.622Z,4.77
2018-03-21T10:29:08.075Z,4.78
2018-03-21T10:31:35.553Z,4.90
2018-03-21T10:34:03.017Z,5.07
2018-03-21T10:36:30.479Z,5.10
2018-03-21T10:38:57.963Z,4.99
2018-03-21T10:41:25.420Z,4.98
2018-03-21T10:43:52.940Z,4.89
2018-03-21T10:46:20.457Z,5.20
2018-03-21T10:48:48.002Z,5.20
2018-03-21T10:51:15.451Z,5.01
2018-03-21T10:53:42.914Z,5.08
2018-03-21T10:56:10.379Z,5.10
2018-03-21T10:58:37.830Z,5.00
2018-03-21T11:01:11.007Z,5.22
2018-03-21T11:03:38.457Z,5.31
2018-03-21T11:06:05.905Z,5.15
2018-03-21T11:08:33.398Z,5.26
2018-03-21T11:11:00.965Z,5.47
2018-03-21T11:13:28.458Z,5.45
2018-03-21T11:15:55.945Z,5.33
2018-03-21T11:18:23.402Z,5.32
2018-03-21T11:20:50.867Z,5.27
2018-03-21T11:23:18.375Z,5.33
2018-03-21T11:25:45.954Z,5.51
2018-03-21T11:28:13.450Z,5.67
2018-03-21T11:30:40.943Z,5.55
2018-03-21T11:33:08.429Z,5.73
2018-03-21T11:35:35.886Z,5.89
2018-03-21T11:38:03.378Z,5.71
2018-03-21T11:40:30.826Z,5.68
2018-03-21T11:42:58.287Z,5.64
2018-03-21T11:45:26.038Z,5.62
2018-03-21T11:47:53.518Z,5.83
2018-03-21T11:50:20.983Z,5.97
2018-03-21T11:52:48.446Z,6.11
2018-03-21T11:55:15.940Z,6.18
2018-03-21T11:57:43.563Z,5.83
2018-03-21T12:00:11.123Z,5.71
2018-03-21T12:02:38.592Z,5.97
2018-03-21T12:05:06.046Z,5.98
2018-03-21T12:07:33.502Z,6.13
2018-03-21T12:10:00.986Z,5.95
2018-03-21T12:12:28.442Z,5.65
2018-03-21T12:14:55.905Z,5.72
2018-03-21T12:17:23.386Z,5.91
2018-03-21T12:19:50.846Z,5.87
2018-03-21T12:22:18.373Z,5.93
2018-03-21T12:24:45.861Z,6.15
2018-03-21T12:27:13.337Z,6.48
2018-03-21T12:29:40.782Z,6.59
2018-03-21T12:32:08.272Z,6.44
2018-03-21T12:34:35.829Z,6.35
2018-03-21T12:37:03.274Z,6.26
2018-03-21T12:39:30.735Z,6.31
2018-03-21T12:41:58.218Z,6.36
2018-03-21T12:44:25.710Z,6.49
2018-03-21T12:46:53.246Z,6.72
2018-03-21T12:49:20.799Z,7.05
2018-03-21T12:51:48.251Z,6.75
2018-03-21T12:54:15.703Z,6.59
2018-03-21T12:56:43.181Z,6.47
2018-03-21T12:59:10.649Z,6.45
2018-03-21T13:01:38.128Z,6.58
2018-03-21T13:04:05.614Z,6.73
2018-03-21T13:06:33.083Z,6.75
2018-03-21T13:09:00.550Z,6.60
2018-03-21T13:11:27.999Z,6.56
2018-03-21T13:13:55.466Z,6.36
2018-03-21T13:16:22.923Z,6.46
2018-03-21T13:18:50.414Z,6.71
2018-03-21T13:21:17.878Z,6.93
2018-03-21T13:23:45.335Z,6.97
2018-03-21T13:26:12.812Z,7.19
2018-03-21T13:28:40.306Z,7.35
2018-03-21T13:31:07.794Z,7.39
2018-03-21T13:33:35.247Z,7.47
2018-03-21T13:36:02.716Z,7.30
2018-03-21T13:38:30.239Z,7.18
2018-03-21T13:40:57.707Z,7.36
2018-03-21T13:43:25.190Z,7.55
2018-03-21T13:45:52.665Z,7.72
2018-03-21T13:48:20.114Z,7.73
2018-03-21T13:50:47.575Z,7.53
2018-03-21T13:53:15.041Z,7.43
2018-03-21T13:55:42.512Z,7.45
2018-03-21T13:58:10.029Z,7.34
2018-03-21T14:00:37.559Z,7.56
2018-03-21T14:03:05.024Z,7.55
2018-03-21T14:05:32.514Z,7.62
2018-03-21T14:07:59.963Z,7.59
2018-03-21T14:10:27.475Z,7.74
2018-03-21T14:12:55.048Z,7.84
2018-03-21T14:15:22.506Z,7.74
2018-03-21T14:17:49.986Z,7.63
2018-03-21T14:20:17.462Z,7.47
2018-03-21T14:22:44.917Z,7.40
2018-03-21T14:25:12.379Z,7.35
2018-03-21T14:27:39.850Z,7.38
2018-03-21T14:30:07.343Z,7.47
2018-03-21T14:32:35.053Z,7.43
2018-03-21T14:35:02.624Z,7.08
2018-03-21T14:37:30.071Z,6.90
2018-03-21T14:39:57.574Z,6.76
2018-03-21T14:42:25.034Z,6.80
2018-03-21T14:44:52.512Z,6.74
2018-03-21T14:47:20.011Z,6.82
2018-03-21T14:49:47.510Z,6.95
2018-03-21T14:52:15.018Z,6.87
2018-03-21T14:54:42.482Z,6.95
2018-03-21T14:57:09.935Z,6.94
2018-03-21T14:59:37.386Z,6.89
2018-03-21T15:02:04.863Z,6.83
2018-03-21T15:04:32.318Z,6.74
2018-03-21T15:06:59.773Z,6.74
2018-03-21T15:09:27.323Z,6.71
2018-03-21T15:11:54.804Z,6.68
2018-03-21T15:14:22.261Z,6.76
2018-03-21T15:16:49.715Z,6.75
2018-03-21T15:19:17.216Z,6.67
2018-03-21T15:21:44.674Z,6.68
2018-03-21T15:24:12.134Z,6.70
2018-03-21T15:26:39.620Z,6.75
2018-03-21T15:29:07.065Z,6.74
2018-03-21T15:31:34.610Z,6.67
2018-03-21T15:34:02.132Z,6.65
2018-03-21T15:36:29.591Z,6.59
2018-03-21T15:38:57.045Z,6.44
2018-03-21T15:41:24.506Z,6.36
2018-03-21T15:43:51.982Z,6.33
2018-03-21T15:46:19.489Z,6.32
2018-03-21T15:48:46.913Z,6.32
2018-03-21T15:51:14.448Z,6.35
2018-03-21T15:53:41.906Z,6.36
2018-03-21T15:56:09.364Z,6.33
2018-03-21T15:58:36.922Z,6.26
2018-03-21T16:01:04.369Z,6.17
2018-03-21T16:03:31.889Z,6.13
2018-03-21T16:05:59.430Z,6.13
2018-03-21T16:08:26.898Z,6.11
2018-03-21T16:10:54.343Z,6.07
2018-03-21T16:13:21.802Z,5.97
2018-03-21T16:15:49.399Z,5.96
2018-03-21T16:18:16.826Z,5.97
2018-03-21T16:20:44.353Z,6.00
2018-03-21T16:23:11.906Z,5.95
2018-03-21T16:25:39.390Z,5.89
2018-03-21T16:28:06.927Z,5.85
2018-03-21T16:30:34.391Z,5.76
2018-03-21T16:33:01.950Z,5.73
2018-03-21T16:35:29.405Z,5.71
2018-03-21T16:37:56.916Z,5.64
2018-03-21T16:40:24.390Z,5.59
2018-03-21T16:42:51.848Z,5.50
2018-03-21T16:45:19.386Z,5.45
2018-03-21T16:47:46.838Z,5.41
2018-03-21T16:50:14.292Z,5.36
2018-03-21T16:52:41.859Z,5.32
2018-03-21T16:55:09.283Z,5.29
2018-03-21T16:57:36.754Z,5.26
2018-03-21T17:00:04.310Z,5.19
2018-03-21T17:02:31.774Z,5.15
2018-03-21T17:04:59.532Z,5.10
2018-03-21T17:07:27.111Z,5.06
2018-03-21T17:09:54.633Z,5.00
2018-03-21T17:12:22.145Z,4.97
2018-03-21T17:14:49.593Z,4.92
2018-03-21T17:17:17.062Z,4.86
2018-03-21T17:19:44.545Z,4.83
2018-03-21T17:22:12.059Z,4.79
2018-03-21T17:24:39.581Z,4.75
2018-03-21T17:27:07.074Z,4.72
2018-03-21T17:29:34.527Z,4.68
2018-03-21T17:32:02.000Z,4.63
2018-03-21T17:34:29.474Z,4.55
2018-03-21T17:36:56.941Z,4.48
2018-03-21T17:39:24.412Z,4.43
2018-03-21T17:41:51.875Z,4.36
2018-03-21T17:44:19.358Z,4.30
2018-03-21T17:46:46.814Z,4.21
2018-03-21T17:49:14.292Z,4.16
2018-03-21T17:51:41.807Z,4.14
2018-03-21T17:54:09.279Z,4.10
2018-03-21T17:56:36.731Z,4.08
2018-03-21T17:59:04.284Z,4.05
2018-03-21T18:01:31.751Z,4.01
2018-03-21T18:03:59.211Z,3.97
2018-03-21T18:06:26.705Z,3.90
2018-03-21T18:08:54.166Z,3.87
2018-03-21T18:11:21.626Z,3.85
2018-03-21T18:13:49.154Z,3.83
2018-03-21T18:16:16.619Z,3.79
2018-03-21T18:18:44.077Z,3.74
2018-03-21T18:21:11.600Z,3.70
2018-03-21T18:23:39.054Z,3.67
2018-03-21T18:26:06.532Z,3.68
2018-03-21T18:28:34.061Z,3.70
2018-03-21T18:31:01.531Z,3.72
2018-03-21T18:33:28.981Z,3.71
2018-03-21T18:35:56.503Z,3.73
2018-03-21T18:38:23.947Z,3.69
2018-03-21T18:40:51.400Z,3.67
2018-03-21T18:43:18.904Z,3.66
2018-03-21T18:45:46.364Z,3.66
2018-03-21T18:48:13.891Z,3.65
2018-03-21T18:50:41.347Z,3.62
2018-03-21T18:53:08.847Z,3.59
2018-03-21T18:55:36.353Z,3.56
2018-03-21T18:58:03.823Z,3.57
2018-03-21T19:00:31.345Z,3.57
2018-03-21T19:02:58.854Z,3.58
2018-03-21T19:05:26.303Z,3.56
2018-03-21T19:07:53.839Z,3.51
2018-03-21T19:10:21.314Z,3.48
2018-03-21T19:12:48.810Z,3.45
2018-03-21T19:15:16.236Z,3.38
2018-03-21T19:17:43.712Z,3.34
2018-03-21T19:20:11.173Z,3.31
2018-03-21T19:22:38.634Z,3.28
2018-03-21T19:25:06.116Z,3.25
2018-03-21T19:27:33.579Z,3.24
2018-03-21T19:30:01.056Z,3.26
2018-03-21T19:32:28.523Z,3.27
2018-03-21T19:34:55.998Z,3.28
2018-03-21T19:37:23.454Z,3.26
2018-03-21T19:39:50.911Z,3.23
2018-03-21T19:42:18.382Z,3.17
2018-03-21T19:44:45.864Z,3.11
2018-03-21T19:47:13.342Z,3.05
2018-03-21T19:49:40.800Z,3.01
2018-03-21T19:52:08.262Z,3.01
2018-03-21T19:54:36.007Z,2.98
2018-03-21T19:57:03.500Z,2.97
2018-03-21T19:59:30.963Z,2.94
2018-03-21T20:01:58.518Z,2.96
2018-03-21T20:04:25.973Z,2.98
2018-03-21T20:06:53.529Z,2.98
2018-03-21T20:09:21.050Z,2.99
2018-03-21T20:11:48.513Z,3.00
2018-03-21T20:14:16.008Z,3.02
2018-03-21T20:16:43.464Z,3.04
2018-03-21T20:19:10.982Z,3.07
2018-03-21T20:21:38.483Z,3.08
2018-03-21T20:24:05.931Z,3.11
2018-03-21T20:26:33.402Z,3.13
2018-03-21T20:29:00.956Z,3.13
2018-03-21T20:31:28.470Z,3.13
2018-03-21T20:33:55.998Z,3.14
2018-03-21T20:36:23.478Z,3.15
2018-03-21T20:38:50.973Z,3.14
2018-03-21T20:41:18.928Z,3.15
2018-03-21T20:43:46.482Z,3.14
2018-03-21T20:46:13.946Z,3.13
2018-03-21T20:48:41.444Z,3.07
2018-03-21T20:51:09.022Z,3.07
2018-03-21T20:53:36.507Z,3.06
2018-03-21T20:56:03.981Z,3.06
2018-03-21T20:58:31.447Z,3.06
2018-03-21T21:00:58.928Z,3.05
2018-03-21T21:03:26.378Z,3.04
2018-03-21T21:05:53.882Z,3.02
2018-03-21T21:08:21.414Z,2.98
2018-03-21T21:10:48.863Z,2.95
2018-03-21T21:13:16.327Z,2.96
2018-03-21T21:15:43.808Z,2.96
2018-03-21T21:18:11.281Z,2.95
2018-03-21T21:20:38.737Z,2.96
2018-03-21T21:23:06.290Z,2.92
2018-03-21T21:25:33.750Z,2.88
2018-03-21T21:28:01.198Z,2.86
2018-03-21T21:30:28.666Z,2.82
2018-03-21T21:32:56.130Z,2.76
2018-03-21T21:35:23.602Z,2.72
2018-03-21T21:37:51.150Z,2.70
2018-03-21T21:40:18.606Z,2.71
2018-03-21T21:42:46.066Z,2.69
2018-03-21T21:45:13.638Z,2.66
2018-03-21T21:47:41.092Z,2.62
2018-03-21T21:50:08.586Z,2.61
2018-03-21T21:52:36.470Z,2.61
2018-03-21T21:55:03.933Z,2.59
2018-03-21T21:57:31.413Z,2.59
2018-03-21T21:59:58.898Z,2.60
2018-03-21T22:02:26.389Z,2.63
2018-03-21T22:04:53.872Z,2.65
2018-03-21T22:07:21.359Z,2.64
2018-03-21T22:09:48.864Z,2.64
2018-03-21T22:12:21.957Z,2.65
2018-03-21T22:14:49.410Z,2.63
2018-03-21T22:17:16.878Z,2.60
2018-03-21T22:19:44.342Z,2.59
2018-03-21T22:22:11.785Z,2.56
2018-03-21T22:24:39.254Z,2.55
2018-03-21T22:27:06.784Z,2.56
2018-03-21T22:31:58.819Z,2.57
2018-03-21T22:34:26.358Z,2.58
2018-03-21T22:36:53.813Z,2.53
2018-03-21T22:39:21.285Z,2.55
2018-03-21T22:41:48.738Z,2.54
2018-03-21T22:44:16.185Z,2.49
2018-03-21T22:46:43.693Z,2.49
2018-03-21T22:49:11.149Z,2.49
2018-03-21T22:51:38.629Z,2.53
2018-03-21T22:54:06.161Z,2.54
2018-03-21T22:56:33.634Z,2.54
2018-03-21T22:59:01.097Z,2.56
2018-03-21T23:01:28.646Z,2.59
2018-03-21T23:03:56.117Z,2.58
2018-03-21T23:06:23.727Z,2.61
2018-03-21T23:08:51.235Z,2.63
2018-03-21T23:11:18.723Z,2.61
2018-03-21T23:13:46.190Z,2.61
2018-03-21T23:16:13.680Z,2.57
2018-03-21T23:18:41.166Z,2.60
2018-03-21T23:21:08.638Z,2.62
2018-03-21T23:23:36.171Z,2.64
2018-03-21T23:26:03.733Z,2.64
2018-03-21T23:28:31.282Z,2.66
2018-03-21T23:30:58.775Z,2.69
2018-03-21T23:33:26.306Z,2.73
2018-03-21T23:35:53.867Z,2.77
2018-03-21T23:38:21.421Z,2.76
2018-03-21T23:40:48.886Z,2.76
2018-03-21T23:43:16.346Z,2.81
2018-03-21T23:45:43.907Z,2.79
2018-03-21T23:48:11.363Z,2.80
2018-03-21T23:50:38.818Z,2.80
2018-03-21T23:53:06.298Z,2.81
2018-03-21T23:55:33.876Z,2.83
2018-03-21T23:58:01.346Z,2.89
